Terminal Aerodrome Forecast
Issued by NWS

Home | Current Version | Previous Version | Text Only | Print | Product List | Glossary On
Versions: 1 2 3 4 5 6 7 8 9 10 11 12 13 14 15 16 17 18 19 20 21 22 23 24 25
000
FTUS44 KTSA 170710 AAA
TAFXNA
TAF AMD
KXNA 170710Z 1707/1806 26005KT P6SM VCTS BKN050CB
      TEMPO 1707/1709 VRB20KT 6SM -TSRA BKN050CB
     FM170900 21007KT P6SM -SHRA BKN040
     FM171500 26007KT P6SM BKN025=

USA.gov is the U.S. government's official web portal to all federal, state and local government web resources and services.